sensor_id;sensor_type;location;lat;lon;timestamp;P1;durP1;ratioP1;P2;durP2;ratioP2
38513;SDS011;24282;48.400;10.808;2022-07-23T00:01:34;7.50;;;4.80;;
38513;SDS011;24282;48.400;10.808;2022-07-23T00:04:00;5.72;;;4.50;;
38513;SDS011;24282;48.400;10.808;2022-07-23T00:06:25;6.95;;;4.88;;
38513;SDS011;24282;48.400;10.808;2022-07-23T00:08:51;9.65;;;4.43;;
38513;SDS011;24282;48.400;10.808;2022-07-23T00:11:17;5.70;;;4.60;;
38513;SDS011;24282;48.400;10.808;2022-07-23T00:13:43;8.18;;;4.70;;
38513;SDS011;24282;48.400;10.808;2022-07-23T00:16:09;8.43;;;4.65;;
38513;SDS011;24282;48.400;10.808;2022-07-23T00:18:35;9.55;;;4.03;;
38513;SDS011;24282;48.400;10.808;2022-07-23T00:21:01;9.07;;;4.75;;
38513;SDS011;24282;48.400;10.808;2022-07-23T00:23:27;7.65;;;4.00;;
38513;SDS011;24282;48.400;10.808;2022-07-23T00:25:54;6.13;;;3.60;;
38513;SDS011;24282;48.400;10.808;2022-07-23T00:28:20;5.50;;;3.78;;
38513;SDS011;24282;48.400;10.808;2022-07-23T00:30:46;7.57;;;3.88;;
38513;SDS011;24282;48.400;10.808;2022-07-23T00:33:12;5.13;;;3.45;;
38513;SDS011;24282;48.400;10.808;2022-07-23T00:35:39;4.93;;;3.88;;
38513;SDS011;24282;48.400;10.808;2022-07-23T00:38:07;5.82;;;4.18;;
38513;SDS011;24282;48.400;10.808;2022-07-23T00:40:34;5.45;;;3.70;;
38513;SDS011;24282;48.400;10.808;2022-07-23T00:43:01;6.25;;;4.25;;
38513;SDS011;24282;48.400;10.808;2022-07-23T00:45:28;6.38;;;4.32;;
38513;SDS011;24282;48.400;10.808;2022-07-23T00:47:54;4.88;;;3.78;;
38513;SDS011;24282;48.400;10.808;2022-07-23T00:50:20;6.78;;;4.30;;
38513;SDS011;24282;48.400;10.808;2022-07-23T00:52:46;6.25;;;4.53;;
38513;SDS011;24282;48.400;10.808;2022-07-23T00:55:12;8.52;;;3.60;;
38513;SDS011;24282;48.400;10.808;2022-07-23T00:57:39;5.10;;;3.55;;
38513;SDS011;24282;48.400;10.808;2022-07-23T01:00:06;5.70;;;3.58;;
38513;SDS011;24282;48.400;10.808;2022-07-23T01:02:36;4.75;;;3.50;;
38513;SDS011;24282;48.400;10.808;2022-07-23T01:05:02;6.65;;;4.35;;
38513;SDS011;24282;48.400;10.808;2022-07-23T01:07:28;4.88;;;3.97;;
38513;SDS011;24282;48.400;10.808;2022-07-23T01:09:55;6.55;;;4.10;;
38513;SDS011;24282;48.400;10.808;2022-07-23T01:12:21;8.07;;;4.03;;
38513;SDS011;24282;48.400;10.808;2022-07-23T01:14:53;5.07;;;3.88;;
38513;SDS011;24282;48.400;10.808;2022-07-23T01:17:20;5.10;;;4.03;;
38513;SDS011;24282;48.400;10.808;2022-07-23T01:19:46;8.57;;;4.20;;
38513;SDS011;24282;48.400;10.808;2022-07-23T01:22:12;5.93;;;4.35;;
38513;SDS011;24282;48.400;10.808;2022-07-23T01:24:39;5.95;;;4.47;;
38513;SDS011;24282;48.400;10.808;2022-07-23T01:27:06;4.55;;;3.70;;
38513;SDS011;24282;48.400;10.808;2022-07-23T01:29:35;6.75;;;4.72;;
38513;SDS011;24282;48.400;10.808;2022-07-23T01:32:05;5.13;;;4.63;;
38513;SDS011;24282;48.400;10.808;2022-07-23T01:34:32;6.95;;;4.50;;
38513;SDS011;24282;48.400;10.808;2022-07-23T01:36:57;7.20;;;4.32;;
38513;SDS011;24282;48.400;10.808;2022-07-23T01:39:23;5.75;;;4.97;;
38513;SDS011;24282;48.400;10.808;2022-07-23T01:41:50;6.38;;;5.22;;
38513;SDS011;24282;48.400;10.808;2022-07-23T01:44:16;6.38;;;5.20;;
38513;SDS011;24282;48.400;10.808;2022-07-23T01:46:42;6.53;;;5.15;;
38513;SDS011;24282;48.400;10.808;2022-07-23T01:49:09;5.65;;;4.68;;
38513;SDS011;24282;48.400;10.808;2022-07-23T01:51:48;6.60;;;5.53;;
38513;SDS011;24282;48.400;10.808;2022-07-23T01:54:31;6.50;;;5.50;;
38513;SDS011;24282;48.400;10.808;2022-07-23T01:56:59;5.63;;;5.07;;
38513;SDS011;24282;48.400;10.808;2022-07-23T01:59:25;6.57;;;5.40;;
38513;SDS011;24282;48.400;10.808;2022-07-23T02:01:51;7.55;;;5.78;;
38513;SDS011;24282;48.400;10.808;2022-07-23T02:04:21;6.68;;;5.40;;
38513;SDS011;24282;48.400;10.808;2022-07-23T02:06:48;7.10;;;5.50;;
38513;SDS011;24282;48.400;10.808;2022-07-23T02:09:14;8.02;;;5.88;;
38513;SDS011;24282;48.400;10.808;2022-07-23T02:11:40;9.27;;;6.50;;
38513;SDS011;24282;48.400;10.808;2022-07-23T02:14:06;8.23;;;6.32;;
38513;SDS011;24282;48.400;10.808;2022-07-23T02:16:32;6.82;;;5.65;;
38513;SDS011;24282;48.400;10.808;2022-07-23T02:19:01;7.13;;;5.68;;
38513;SDS011;24282;48.400;10.808;2022-07-23T02:21:28;10.82;;;6.55;;
38513;SDS011;24282;48.400;10.808;2022-07-23T02:23:54;6.50;;;5.35;;
38513;SDS011;24282;48.400;10.808;2022-07-23T02:26:20;6.93;;;5.53;;
38513;SDS011;24282;48.400;10.808;2022-07-23T02:28:47;6.80;;;5.60;;
38513;SDS011;24282;48.400;10.808;2022-07-23T02:31:13;6.35;;;5.65;;
38513;SDS011;24282;48.400;10.808;2022-07-23T02:33:39;7.10;;;5.47;;
38513;SDS011;24282;48.400;10.808;2022-07-23T02:36:05;8.15;;;6.00;;
38513;SDS011;24282;48.400;10.808;2022-07-23T02:38:31;7.97;;;6.18;;
38513;SDS011;24282;48.400;10.808;2022-07-23T02:40:57;9.27;;;6.35;;
38513;SDS011;24282;48.400;10.808;2022-07-23T02:43:22;7.57;;;6.30;;
38513;SDS011;24282;48.400;10.808;2022-07-23T02:45:48;7.47;;;6.55;;
38513;SDS011;24282;48.400;10.808;2022-07-23T02:48:14;9.48;;;5.78;;
38513;SDS011;24282;48.400;10.808;2022-07-23T02:50:43;10.40;;;7.13;;
38513;SDS011;24282;48.400;10.808;2022-07-23T02:53:11;6.53;;;5.85;;
38513;SDS011;24282;48.400;10.808;2022-07-23T02:55:38;7.53;;;5.68;;
38513;SDS011;24282;48.400;10.808;2022-07-23T02:58:04;8.05;;;6.28;;
38513;SDS011;24282;48.400;10.808;2022-07-23T03:00:30;8.27;;;5.88;;
38513;SDS011;24282;48.400;10.808;2022-07-23T03:02:56;8.05;;;5.95;;
38513;SDS011;24282;48.400;10.808;2022-07-23T03:05:22;6.90;;;6.15;;
38513;SDS011;24282;48.400;10.808;2022-07-23T03:07:48;9.88;;;6.10;;
38513;SDS011;24282;48.400;10.808;2022-07-23T03:10:13;7.85;;;5.80;;
38513;SDS011;24282;48.400;10.808;2022-07-23T03:12:39;7.22;;;5.88;;
38513;SDS011;24282;48.400;10.808;2022-07-23T03:15:05;8.05;;;6.47;;
38513;SDS011;24282;48.400;10.808;2022-07-23T03:17:31;6.97;;;5.95;;
38513;SDS011;24282;48.400;10.808;2022-07-23T03:19:57;8.07;;;5.53;;
38513;SDS011;24282;48.400;10.808;2022-07-23T03:22:23;7.45;;;6.35;;
38513;SDS011;24282;48.400;10.808;2022-07-23T03:24:49;7.65;;;6.53;;
38513;SDS011;24282;48.400;10.808;2022-07-23T03:27:28;6.65;;;5.78;;
38513;SDS011;24282;48.400;10.808;2022-07-23T03:29:56;6.78;;;5.97;;
38513;SDS011;24282;48.400;10.808;2022-07-23T03:32:23;7.32;;;5.60;;
38513;SDS011;24282;48.400;10.808;2022-07-23T03:34:50;7.57;;;5.45;;
38513;SDS011;24282;48.400;10.808;2022-07-23T03:37:16;7.53;;;5.50;;
38513;SDS011;24282;48.400;10.808;2022-07-23T03:39:44;7.70;;;5.03;;
38513;SDS011;24282;48.400;10.808;2022-07-23T03:42:10;6.72;;;5.65;;
38513;SDS011;24282;48.400;10.808;2022-07-23T03:44:36;6.55;;;5.30;;
38513;SDS011;24282;48.400;10.808;2022-07-23T03:47:03;9.73;;;5.70;;
38513;SDS011;24282;48.400;10.808;2022-07-23T03:49:29;8.18;;;6.13;;
38513;SDS011;24282;48.400;10.808;2022-07-23T03:51:56;6.80;;;5.85;;
38513;SDS011;24282;48.400;10.808;2022-07-23T03:54:22;6.55;;;5.72;;
38513;SDS011;24282;48.400;10.808;2022-07-23T03:56:48;7.18;;;5.47;;
38513;SDS011;24282;48.400;10.808;2022-07-23T03:59:14;9.18;;;5.82;;
38513;SDS011;24282;48.400;10.808;2022-07-23T04:01:40;9.52;;;5.78;;
38513;SDS011;24282;48.400;10.808;2022-07-23T04:04:06;6.22;;;5.38;;
38513;SDS011;24282;48.400;10.808;2022-07-23T04:06:35;10.18;;;7.40;;
38513;SDS011;24282;48.400;10.808;2022-07-23T04:09:01;7.65;;;5.70;;
38513;SDS011;24282;48.400;10.808;2022-07-23T04:11:29;6.78;;;5.45;;
38513;SDS011;24282;48.400;10.808;2022-07-23T04:13:55;7.68;;;5.68;;
38513;SDS011;24282;48.400;10.808;2022-07-23T04:16:21;6.93;;;4.93;;
38513;SDS011;24282;48.400;10.808;2022-07-23T04:18:47;6.47;;;5.63;;
38513;SDS011;24282;48.400;10.808;2022-07-23T04:21:19;6.10;;;5.18;;
38513;SDS011;24282;48.400;10.808;2022-07-23T04:23:45;6.00;;;5.00;;
38513;SDS011;24282;48.400;10.808;2022-07-23T04:26:12;7.05;;;4.95;;
38513;SDS011;24282;48.400;10.808;2022-07-23T04:28:38;6.90;;;5.43;;
38513;SDS011;24282;48.400;10.808;2022-07-23T04:31:04;10.57;;;6.03;;
38513;SDS011;24282;48.400;10.808;2022-07-23T04:33:31;6.95;;;5.43;;
38513;SDS011;24282;48.400;10.808;2022-07-23T04:36:01;6.80;;;5.07;;
38513;SDS011;24282;48.400;10.808;2022-07-23T04:38:27;6.78;;;5.28;;
38513;SDS011;24282;48.400;10.808;2022-07-23T04:40:58;6.32;;;5.68;;
38513;SDS011;24282;48.400;10.808;2022-07-23T04:43:24;6.43;;;5.40;;
38513;SDS011;24282;48.400;10.808;2022-07-23T04:45:50;6.60;;;5.50;;
38513;SDS011;24282;48.400;10.808;2022-07-23T04:48:16;5.38;;;4.30;;
38513;SDS011;24282;48.400;10.808;2022-07-23T04:50:42;8.52;;;5.80;;
38513;SDS011;24282;48.400;10.808;2022-07-23T04:55:42;5.53;;;4.57;;
38513;SDS011;24282;48.400;10.808;2022-07-23T04:58:08;6.95;;;5.60;;
38513;SDS011;24282;48.400;10.808;2022-07-23T05:00:34;5.60;;;4.90;;
38513;SDS011;24282;48.400;10.808;2022-07-23T05:03:00;6.40;;;5.15;;
38513;SDS011;24282;48.400;10.808;2022-07-23T05:05:26;6.95;;;5.32;;
38513;SDS011;24282;48.400;10.808;2022-07-23T05:07:57;6.13;;;5.03;;
38513;SDS011;24282;48.400;10.808;2022-07-23T05:10:26;5.47;;;4.70;;
38513;SDS011;24282;48.400;10.808;2022-07-23T05:12:52;6.28;;;4.78;;
38513;SDS011;24282;48.400;10.808;2022-07-23T05:15:18;6.15;;;5.53;;
38513;SDS011;24282;48.400;10.808;2022-07-23T05:17:44;8.18;;;5.30;;
38513;SDS011;24282;48.400;10.808;2022-07-23T05:20:14;5.80;;;5.13;;
38513;SDS011;24282;48.400;10.808;2022-07-23T05:22:41;6.57;;;4.93;;
38513;SDS011;24282;48.400;10.808;2022-07-23T05:25:07;8.45;;;6.18;;
38513;SDS011;24282;48.400;10.808;2022-07-23T05:27:33;7.90;;;5.28;;
38513;SDS011;24282;48.400;10.808;2022-07-23T05:29:59;5.97;;;5.18;;
38513;SDS011;24282;48.400;10.808;2022-07-23T05:32:25;6.03;;;4.60;;
38513;SDS011;24282;48.400;10.808;2022-07-23T05:35:01;6.00;;;4.93;;
38513;SDS011;24282;48.400;10.808;2022-07-23T05:37:27;6.93;;;5.40;;
38513;SDS011;24282;48.400;10.808;2022-07-23T05:39:53;5.22;;;4.72;;
38513;SDS011;24282;48.400;10.808;2022-07-23T05:42:19;6.03;;;5.00;;
38513;SDS011;24282;48.400;10.808;2022-07-23T05:44:45;7.72;;;5.32;;
38513;SDS011;24282;48.400;10.808;2022-07-23T05:47:11;5.65;;;5.05;;
38513;SDS011;24282;48.400;10.808;2022-07-23T05:49:37;7.40;;;5.43;;
38513;SDS011;24282;48.400;10.808;2022-07-23T05:52:19;5.95;;;5.15;;
38513;SDS011;24282;48.400;10.808;2022-07-23T05:55:11;6.05;;;5.30;;
38513;SDS011;24282;48.400;10.808;2022-07-23T05:57:38;6.43;;;4.93;;
38513;SDS011;24282;48.400;10.808;2022-07-23T06:00:06;6.82;;;5.20;;
38513;SDS011;24282;48.400;10.808;2022-07-23T06:02:39;8.10;;;4.65;;
38513;SDS011;24282;48.400;10.808;2022-07-23T06:05:06;6.18;;;4.65;;
38513;SDS011;24282;48.400;10.808;2022-07-23T06:07:33;5.40;;;4.82;;
38513;SDS011;24282;48.400;10.808;2022-07-23T06:09:59;5.97;;;4.45;;
38513;SDS011;24282;48.400;10.808;2022-07-23T06:12:25;5.72;;;4.85;;
38513;SDS011;24282;48.400;10.808;2022-07-23T06:14:51;5.80;;;4.88;;
38513;SDS011;24282;48.400;10.808;2022-07-23T06:17:17;6.18;;;4.85;;
38513;SDS011;24282;48.400;10.808;2022-07-23T06:19:43;6.72;;;5.25;;
38513;SDS011;24282;48.400;10.808;2022-07-23T06:22:09;7.15;;;5.45;;
38513;SDS011;24282;48.400;10.808;2022-07-23T06:24:35;7.30;;;4.93;;
38513;SDS011;24282;48.400;10.808;2022-07-23T06:27:02;6.72;;;5.75;;
38513;SDS011;24282;48.400;10.808;2022-07-23T06:29:29;5.25;;;4.45;;
38513;SDS011;24282;48.400;10.808;2022-07-23T06:31:54;6.13;;;5.10;;
38513;SDS011;24282;48.400;10.808;2022-07-23T06:34:20;5.90;;;5.30;;
38513;SDS011;24282;48.400;10.808;2022-07-23T06:36:46;5.22;;;4.72;;
38513;SDS011;24282;48.400;10.808;2022-07-23T06:39:12;6.97;;;5.28;;
38513;SDS011;24282;48.400;10.808;2022-07-23T06:41:38;7.00;;;5.05;;
38513;SDS011;24282;48.400;10.808;2022-07-23T06:44:03;7.80;;;4.85;;
38513;SDS011;24282;48.400;10.808;2022-07-23T06:46:32;6.63;;;5.20;;
38513;SDS011;24282;48.400;10.808;2022-07-23T06:48:59;6.00;;;4.78;;
38513;SDS011;24282;48.400;10.808;2022-07-23T06:51:27;6.35;;;5.20;;
38513;SDS011;24282;48.400;10.808;2022-07-23T06:53:53;7.68;;;5.28;;
38513;SDS011;24282;48.400;10.808;2022-07-23T06:56:19;6.50;;;5.32;;
38513;SDS011;24282;48.400;10.808;2022-07-23T06:58:48;6.85;;;6.15;;
38513;SDS011;24282;48.400;10.808;2022-07-23T07:01:13;7.25;;;6.53;;
38513;SDS011;24282;48.400;10.808;2022-07-23T07:03:40;6.85;;;5.18;;
38513;SDS011;24282;48.400;10.808;2022-07-23T07:06:06;6.28;;;4.95;;
38513;SDS011;24282;48.400;10.808;2022-07-23T07:08:32;6.32;;;5.72;;
38513;SDS011;24282;48.400;10.808;2022-07-23T07:10:57;6.78;;;5.38;;
38513;SDS011;24282;48.400;10.808;2022-07-23T07:13:23;8.55;;;5.72;;
38513;SDS011;24282;48.400;10.808;2022-07-23T07:15:49;6.47;;;5.32;;
38513;SDS011;24282;48.400;10.808;2022-07-23T07:18:14;6.82;;;5.57;;
38513;SDS011;24282;48.400;10.808;2022-07-23T07:20:40;5.80;;;4.93;;
38513;SDS011;24282;48.400;10.808;2022-07-23T07:23:06;5.43;;;4.40;;
38513;SDS011;24282;48.400;10.808;2022-07-23T07:25:32;8.10;;;5.60;;
38513;SDS011;24282;48.400;10.808;2022-07-23T07:27:57;5.57;;;4.88;;
38513;SDS011;24282;48.400;10.808;2022-07-23T07:30:23;7.53;;;4.75;;
38513;SDS011;24282;48.400;10.808;2022-07-23T07:32:49;5.97;;;5.38;;
38513;SDS011;24282;48.400;10.808;2022-07-23T07:35:15;6.35;;;4.95;;
38513;SDS011;24282;48.400;10.808;2022-07-23T07:37:40;5.60;;;4.70;;
38513;SDS011;24282;48.400;10.808;2022-07-23T07:40:06;6.07;;;5.47;;
38513;SDS011;24282;48.400;10.808;2022-07-23T07:42:33;5.78;;;5.03;;
38513;SDS011;24282;48.400;10.808;2022-07-23T07:44:59;5.88;;;4.88;;
38513;SDS011;24282;48.400;10.808;2022-07-23T07:47:25;6.05;;;5.50;;
38513;SDS011;24282;48.400;10.808;2022-07-23T07:49:51;5.22;;;4.72;;
38513;SDS011;24282;48.400;10.808;2022-07-23T07:52:17;8.40;;;5.50;;
38513;SDS011;24282;48.400;10.808;2022-07-23T07:54:42;5.63;;;5.05;;
38513;SDS011;24282;48.400;10.808;2022-07-23T07:57:08;5.05;;;4.55;;
38513;SDS011;24282;48.400;10.808;2022-07-23T07:59:34;6.72;;;5.22;;
38513;SDS011;24282;48.400;10.808;2022-07-23T08:02:00;6.10;;;5.50;;
38513;SDS011;24282;48.400;10.808;2022-07-23T08:04:27;6.15;;;4.95;;
38513;SDS011;24282;48.400;10.808;2022-07-23T08:06:52;5.97;;;5.15;;
38513;SDS011;24282;48.400;10.808;2022-07-23T08:09:18;5.97;;;5.03;;
38513;SDS011;24282;48.400;10.808;2022-07-23T08:11:44;5.88;;;5.28;;
38513;SDS011;24282;48.400;10.808;2022-07-23T08:14:10;7.60;;;5.88;;
38513;SDS011;24282;48.400;10.808;2022-07-23T08:16:36;7.63;;;5.50;;
38513;SDS011;24282;48.400;10.808;2022-07-23T08:19:02;6.32;;;4.93;;
38513;SDS011;24282;48.400;10.808;2022-07-23T08:21:28;6.43;;;5.03;;
38513;SDS011;24282;48.400;10.808;2022-07-23T08:23:53;6.45;;;4.95;;
38513;SDS011;24282;48.400;10.808;2022-07-23T08:26:19;8.85;;;6.13;;
38513;SDS011;24282;48.400;10.808;2022-07-23T08:28:45;6.20;;;5.03;;
38513;SDS011;24282;48.400;10.808;2022-07-23T08:31:10;5.47;;;4.70;;
38513;SDS011;24282;48.400;10.808;2022-07-23T08:33:37;6.20;;;5.03;;
38513;SDS011;24282;48.400;10.808;2022-07-23T08:36:03;5.30;;;4.75;;
38513;SDS011;24282;48.400;10.808;2022-07-23T08:38:29;6.25;;;5.05;;
38513;SDS011;24282;48.400;10.808;2022-07-23T08:40:56;6.15;;;4.75;;
38513;SDS011;24282;48.400;10.808;2022-07-23T08:43:26;6.65;;;5.05;;
38513;SDS011;24282;48.400;10.808;2022-07-23T08:45:57;5.72;;;4.75;;
38513;SDS011;24282;48.400;10.808;2022-07-23T08:48:25;6.90;;;4.60;;
38513;SDS011;24282;48.400;10.808;2022-07-23T08:50:56;6.35;;;4.68;;
38513;SDS011;24282;48.400;10.808;2022-07-23T08:53:24;6.32;;;4.68;;
38513;SDS011;24282;48.400;10.808;2022-07-23T08:55:55;4.63;;;3.97;;
38513;SDS011;24282;48.400;10.808;2022-07-23T08:58:22;4.82;;;4.22;;
38513;SDS011;24282;48.400;10.808;2022-07-23T09:00:48;5.70;;;4.30;;
38513;SDS011;24282;48.400;10.808;2022-07-23T09:03:16;5.18;;;4.20;;
38513;SDS011;24282;48.400;10.808;2022-07-23T09:05:46;4.55;;;4.03;;
38513;SDS011;24282;48.400;10.808;2022-07-23T09:08:15;5.78;;;4.60;;
38513;SDS011;24282;48.400;10.808;2022-07-23T09:15:52;5.43;;;3.88;;
38513;SDS011;24282;48.400;10.808;2022-07-23T09:18:27;4.72;;;4.30;;
38513;SDS011;24282;48.400;10.808;2022-07-23T09:28:49;4.38;;;3.97;;
38513;SDS011;24282;48.400;10.808;2022-07-23T09:31:18;4.93;;;3.53;;
38513;SDS011;24282;48.400;10.808;2022-07-23T09:33:44;4.40;;;4.00;;
38513;SDS011;24282;48.400;10.808;2022-07-23T09:36:09;7.55;;;4.18;;
38513;SDS011;24282;48.400;10.808;2022-07-23T09:38:36;5.22;;;3.42;;
38513;SDS011;24282;48.400;10.808;2022-07-23T09:41:15;5.28;;;3.85;;
38513;SDS011;24282;48.400;10.808;2022-07-23T09:43:41;5.13;;;4.60;;
38513;SDS011;24282;48.400;10.808;2022-07-23T09:46:20;4.75;;;4.15;;
38513;SDS011;24282;48.400;10.808;2022-07-23T09:48:55;6.43;;;4.15;;
38513;SDS011;24282;48.400;10.808;2022-07-23T09:51:21;6.57;;;5.80;;
38513;SDS011;24282;48.400;10.808;2022-07-23T09:53:47;5.75;;;4.35;;
38513;SDS011;24282;48.400;10.808;2022-07-23T09:56:13;8.20;;;5.18;;
38513;SDS011;24282;48.400;10.808;2022-07-23T09:58:40;5.30;;;4.80;;
38513;SDS011;24282;48.400;10.808;2022-07-23T10:01:13;5.82;;;5.22;;
38513;SDS011;24282;48.400;10.808;2022-07-23T10:03:40;5.90;;;4.18;;
38513;SDS011;24282;48.400;10.808;2022-07-23T10:06:44;8.90;;;4.55;;
38513;SDS011;24282;48.400;10.808;2022-07-23T10:09:32;6.45;;;4.97;;
38513;SDS011;24282;48.400;10.808;2022-07-23T10:12:31;5.90;;;4.47;;
38513;SDS011;24282;48.400;10.808;2022-07-23T10:15:19;5.45;;;4.70;;
38513;SDS011;24282;48.400;10.808;2022-07-23T10:17:45;5.70;;;4.25;;
38513;SDS011;24282;48.400;10.808;2022-07-23T10:20:11;6.32;;;4.72;;
38513;SDS011;24282;48.400;10.808;2022-07-23T10:22:38;8.40;;;5.00;;
38513;SDS011;24282;48.400;10.808;2022-07-23T10:38:27;5.50;;;4.45;;
38513;SDS011;24282;48.400;10.808;2022-07-23T10:41:14;5.88;;;4.43;;
38513;SDS011;24282;48.400;10.808;2022-07-23T10:43:40;5.50;;;4.28;;
38513;SDS011;24282;48.400;10.808;2022-07-23T10:49:23;5.57;;;4.53;;
38513;SDS011;24282;48.400;10.808;2022-07-23T10:55:38;5.40;;;4.47;;
38513;SDS011;24282;48.400;10.808;2022-07-23T10:57:27;6.00;;;4.32;;
38513;SDS011;24282;48.400;10.808;2022-07-23T11:02:32;5.20;;;4.57;;
38513;SDS011;24282;48.400;10.808;2022-07-23T11:04:59;6.32;;;4.45;;
38513;SDS011;24282;48.400;10.808;2022-07-23T11:07:29;6.38;;;4.97;;
38513;SDS011;24282;48.400;10.808;2022-07-23T11:09:55;5.10;;;4.60;;
38513;SDS011;24282;48.400;10.808;2022-07-23T11:15:03;6.20;;;4.53;;
38513;SDS011;24282;48.400;10.808;2022-07-23T11:17:30;6.57;;;4.88;;
38513;SDS011;24282;48.400;10.808;2022-07-23T11:25:12;5.95;;;4.45;;
38513;SDS011;24282;48.400;10.808;2022-07-23T11:28:09;5.50;;;4.55;;
38513;SDS011;24282;48.400;10.808;2022-07-23T11:30:41;6.55;;;4.35;;
38513;SDS011;24282;48.400;10.808;2022-07-23T11:35:36;5.13;;;4.63;;
38513;SDS011;24282;48.400;10.808;2022-07-23T11:38:07;5.38;;;4.50;;
38513;SDS011;24282;48.400;10.808;2022-07-23T11:40:50;6.82;;;4.85;;
38513;SDS011;24282;48.400;10.808;2022-07-23T11:43:18;5.43;;;4.60;;
38513;SDS011;24282;48.400;10.808;2022-07-23T11:45:45;4.65;;;4.00;;
38513;SDS011;24282;48.400;10.808;2022-07-23T11:48:20;6.15;;;4.07;;
38513;SDS011;24282;48.400;10.808;2022-07-23T11:50:47;7.22;;;4.57;;
38513;SDS011;24282;48.400;10.808;2022-07-23T11:53:21;5.90;;;4.15;;
38513;SDS011;24282;48.400;10.808;2022-07-23T11:55:48;7.45;;;4.80;;
38513;SDS011;24282;48.400;10.808;2022-07-23T11:58:14;4.90;;;4.38;;
38513;SDS011;24282;48.400;10.808;2022-07-23T12:00:40;5.13;;;4.25;;
38513;SDS011;24282;48.400;10.808;2022-07-23T12:03:06;4.72;;;4.13;;
38513;SDS011;24282;48.400;10.808;2022-07-23T12:05:36;4.63;;;4.03;;
38513;SDS011;24282;48.400;10.808;2022-07-23T12:08:04;5.93;;;4.38;;
38513;SDS011;24282;48.400;10.808;2022-07-23T12:13:15;5.20;;;4.20;;
38513;SDS011;24282;48.400;10.808;2022-07-23T12:18:11;6.03;;;4.20;;
38513;SDS011;24282;48.400;10.808;2022-07-23T12:20:39;5.68;;;4.63;;
38513;SDS011;24282;48.400;10.808;2022-07-23T12:23:10;5.95;;;4.30;;
38513;SDS011;24282;48.400;10.808;2022-07-23T12:25:39;5.63;;;4.90;;
38513;SDS011;24282;48.400;10.808;2022-07-23T12:28:20;5.88;;;4.82;;
38513;SDS011;24282;48.400;10.808;2022-07-23T12:30:52;5.07;;;4.57;;
38513;SDS011;24282;48.400;10.808;2022-07-23T12:35:55;5.05;;;4.25;;
38513;SDS011;24282;48.400;10.808;2022-07-23T12:38:23;5.72;;;5.13;;
38513;SDS011;24282;48.400;10.808;2022-07-23T12:40:52;5.28;;;4.40;;
38513;SDS011;24282;48.400;10.808;2022-07-23T12:46:06;5.63;;;4.35;;
38513;SDS011;24282;48.400;10.808;2022-07-23T12:53:44;5.43;;;4.80;;
38513;SDS011;24282;48.400;10.808;2022-07-23T12:56:20;6.28;;;4.53;;
38513;SDS011;24282;48.400;10.808;2022-07-23T12:58:52;6.93;;;5.00;;
38513;SDS011;24282;48.400;10.808;2022-07-23T13:03:54;6.32;;;5.72;;
38513;SDS011;24282;48.400;10.808;2022-07-23T13:06:31;6.07;;;4.95;;
38513;SDS011;24282;48.400;10.808;2022-07-23T13:11:30;7.05;;;4.78;;
38513;SDS011;24282;48.400;10.808;2022-07-23T13:13:56;7.07;;;5.07;;
38513;SDS011;24282;48.400;10.808;2022-07-23T13:16:22;7.78;;;5.50;;
38513;SDS011;24282;48.400;10.808;2022-07-23T13:18:48;6.03;;;4.82;;
38513;SDS011;24282;48.400;10.808;2022-07-23T13:21:14;7.32;;;5.00;;
38513;SDS011;24282;48.400;10.808;2022-07-23T13:23:40;5.72;;;4.80;;
38513;SDS011;24282;48.400;10.808;2022-07-23T13:26:07;7.45;;;5.22;;
38513;SDS011;24282;48.400;10.808;2022-07-23T13:28:33;6.53;;;5.43;;
38513;SDS011;24282;48.400;10.808;2022-07-23T13:30:58;5.50;;;5.00;;
38513;SDS011;24282;48.400;10.808;2022-07-23T13:33:24;6.10;;;5.50;;
38513;SDS011;24282;48.400;10.808;2022-07-23T13:35:51;5.30;;;4.78;;
38513;SDS011;24282;48.400;10.808;2022-07-23T13:38:18;7.95;;;4.97;;
38513;SDS011;24282;48.400;10.808;2022-07-23T13:40:46;6.30;;;5.40;;
38513;SDS011;24282;48.400;10.808;2022-07-23T13:43:14;7.47;;;5.55;;
38513;SDS011;24282;48.400;10.808;2022-07-23T13:45:42;7.50;;;5.88;;
38513;SDS011;24282;48.400;10.808;2022-07-23T13:48:09;5.78;;;5.15;;
38513;SDS011;24282;48.400;10.808;2022-07-23T13:50:39;6.57;;;5.40;;
38513;SDS011;24282;48.400;10.808;2022-07-23T13:53:07;6.28;;;5.28;;
38513;SDS011;24282;48.400;10.808;2022-07-23T13:55:35;6.40;;;5.55;;
38513;SDS011;24282;48.400;10.808;2022-07-23T13:58:03;6.43;;;5.50;;
38513;SDS011;24282;48.400;10.808;2022-07-23T14:00:30;6.38;;;5.55;;
38513;SDS011;24282;48.400;10.808;2022-07-23T14:02:58;6.38;;;5.70;;
38513;SDS011;24282;48.400;10.808;2022-07-23T14:05:24;5.72;;;5.13;;
38513;SDS011;24282;48.400;10.808;2022-07-23T14:07:51;6.18;;;5.13;;
38513;SDS011;24282;48.400;10.808;2022-07-23T14:10:18;6.85;;;5.43;;
38513;SDS011;24282;48.400;10.808;2022-07-23T14:12:45;6.25;;;5.43;;
38513;SDS011;24282;48.400;10.808;2022-07-23T14:15:12;5.90;;;5.30;;
38513;SDS011;24282;48.400;10.808;2022-07-23T14:17:39;5.78;;;4.50;;
38513;SDS011;24282;48.400;10.808;2022-07-23T14:20:07;5.22;;;4.70;;
38513;SDS011;24282;48.400;10.808;2022-07-23T14:22:35;5.28;;;4.68;;
38513;SDS011;24282;48.400;10.808;2022-07-23T14:25:02;5.15;;;4.20;;
38513;SDS011;24282;48.400;10.808;2022-07-23T14:27:28;4.40;;;3.50;;
38513;SDS011;24282;48.400;10.808;2022-07-23T14:29:54;3.58;;;3.17;;
38513;SDS011;24282;48.400;10.808;2022-07-23T14:32:20;4.20;;;3.47;;
38513;SDS011;24282;48.400;10.808;2022-07-23T14:34:47;5.90;;;4.28;;
38513;SDS011;24282;48.400;10.808;2022-07-23T14:37:13;4.18;;;3.38;;
38513;SDS011;24282;48.400;10.808;2022-07-23T14:39:39;3.85;;;3.45;;
38513;SDS011;24282;48.400;10.808;2022-07-23T14:42:06;4.50;;;3.95;;
38513;SDS011;24282;48.400;10.808;2022-07-23T14:44:33;4.65;;;4.15;;
38513;SDS011;24282;48.400;10.808;2022-07-23T14:46:59;7.65;;;4.93;;
38513;SDS011;24282;48.400;10.808;2022-07-23T14:49:26;4.50;;;4.10;;
38513;SDS011;24282;48.400;10.808;2022-07-23T14:51:52;8.77;;;4.97;;
38513;SDS011;24282;48.400;10.808;2022-07-23T14:54:18;4.88;;;4.38;;
38513;SDS011;24282;48.400;10.808;2022-07-23T14:56:45;5.57;;;5.07;;
38513;SDS011;24282;48.400;10.808;2022-07-23T14:59:12;5.60;;;4.18;;
38513;SDS011;24282;48.400;10.808;2022-07-23T15:01:38;5.22;;;4.32;;
38513;SDS011;24282;48.400;10.808;2022-07-23T15:04:05;5.53;;;4.20;;
38513;SDS011;24282;48.400;10.808;2022-07-23T15:06:31;5.57;;;5.00;;
38513;SDS011;24282;48.400;10.808;2022-07-23T15:08:57;6.15;;;4.63;;
38513;SDS011;24282;48.400;10.808;2022-07-23T15:11:25;6.05;;;5.03;;
38513;SDS011;24282;48.400;10.808;2022-07-23T15:13:54;5.30;;;4.75;;
38513;SDS011;24282;48.400;10.808;2022-07-23T15:16:20;5.20;;;4.47;;
38513;SDS011;24282;48.400;10.808;2022-07-23T15:18:46;5.85;;;4.53;;
38513;SDS011;24282;48.400;10.808;2022-07-23T15:21:12;5.30;;;4.80;;
38513;SDS011;24282;48.400;10.808;2022-07-23T15:23:38;5.70;;;4.80;;
38513;SDS011;24282;48.400;10.808;2022-07-23T15:26:05;5.10;;;4.57;;
38513;SDS011;24282;48.400;10.808;2022-07-23T15:28:31;5.88;;;4.40;;
38513;SDS011;24282;48.400;10.808;2022-07-23T15:30:57;5.20;;;4.70;;
38513;SDS011;24282;48.400;10.808;2022-07-23T15:33:23;7.55;;;5.05;;
38513;SDS011;24282;48.400;10.808;2022-07-23T15:35:49;4.70;;;4.15;;
38513;SDS011;24282;48.400;10.808;2022-07-23T15:38:15;4.43;;;3.90;;
38513;SDS011;24282;48.400;10.808;2022-07-23T15:40:40;4.78;;;4.28;;
38513;SDS011;24282;48.400;10.808;2022-07-23T15:43:06;5.10;;;4.57;;
38513;SDS011;24282;48.400;10.808;2022-07-23T15:45:32;5.03;;;4.28;;